createdAt,value
2019-04-22T00:00:37.278Z,25.80
2019-04-22T00:06:10.139Z,23.97
2019-04-22T00:11:25.106Z,19.07
2019-04-22T00:16:38.868Z,21.20
2019-04-22T00:21:50.213Z,19.27
2019-04-22T00:26:59.573Z,20.40
2019-04-22T00:32:05.525Z,19.13
2019-04-22T00:37:23.603Z,18.40
2019-04-22T00:47:39.983Z,16.87
2019-04-22T00:52:59.815Z,18.23
2019-04-22T00:58:02.562Z,16.73
2019-04-22T01:03:19.754Z,17.87
2019-04-22T01:08:30.673Z,17.77
2019-04-22T01:13:38.448Z,16.53
2019-04-22T01:18:49.024Z,18.17
2019-04-22T01:23:57.572Z,20.83
2019-04-22T01:29:02.508Z,20.73
2019-04-22T01:34:10.018Z,18.97
2019-04-22T01:39:37.605Z,19.23
2019-04-22T01:44:49.598Z,18.10
2019-04-22T01:49:54.123Z,15.07
2019-04-22T01:55:32.364Z,18.70
2019-04-22T02:00:13.986Z,21.93
2019-04-22T02:05:50.449Z,19.57
2019-04-22T02:10:53.084Z,21.80
2019-04-22T02:16:03.593Z,15.97
2019-04-22T02:21:09.390Z,17.80
2019-04-22T02:26:25.539Z,21.10
2019-04-22T02:41:54.980Z,19.50
2019-04-22T02:52:19.965Z,18.97
2019-04-22T03:08:09.909Z,19.67
2019-04-22T03:13:30.789Z,17.63
2019-04-22T03:18:41.975Z,18.97
2019-04-22T04:00:09.865Z,20.70
2019-04-22T04:05:10.011Z,17.90
2019-04-22T04:15:30.007Z,20.40
2019-04-22T04:21:32.919Z,20.87
2019-04-22T04:31:55.211Z,25.93
2019-04-22T04:37:10.280Z,21.10
2019-04-22T04:42:32.987Z,20.67
2019-04-22T04:47:39.107Z,18.57
2019-04-22T05:02:58.392Z,17.27
2019-04-22T05:08:35.375Z,17.10
2019-04-22T05:13:14.478Z,18.07
2019-04-22T05:18:33.075Z,23.83
2019-04-22T05:23:41.946Z,21.67
2019-04-22T05:28:42.295Z,18.30
2019-04-22T05:33:56.856Z,17.33
2019-04-22T05:39:06.073Z,21.50
2019-04-22T05:44:32.616Z,17.50
2019-04-22T05:49:35.014Z,21.13
2019-04-22T05:54:48.681Z,17.63
2019-04-22T05:59:59.516Z,18.50
2019-04-22T06:05:11.939Z,16.03
2019-04-22T06:10:39.824Z,15.73
2019-04-22T06:15:36.369Z,15.63
2019-04-22T06:20:53.758Z,12.50
2019-04-22T06:26:21.969Z,15.10
2019-04-22T06:31:20.964Z,12.10
2019-04-22T06:36:27.493Z,11.13
2019-04-22T06:41:35.390Z,11.90
2019-04-22T06:46:47.687Z,13.50
2019-04-22T06:52:01.183Z,10.23
2019-04-22T06:57:06.339Z,11.03
2019-04-22T07:02:16.628Z,10.23
2019-04-22T07:07:25.220Z,8.00
2019-04-22T07:12:41.789Z,8.60
2019-04-22T07:17:56.816Z,9.13
2019-04-22T07:23:09.618Z,9.00
2019-04-22T07:28:17.742Z,11.50
2019-04-22T07:33:34.906Z,9.17
2019-04-22T07:38:49.976Z,9.80
2019-04-22T07:44:09.805Z,9.40
2019-04-22T07:49:02.101Z,10.70
2019-04-22T07:54:14.400Z,8.33
2019-04-22T07:59:30.635Z,8.20
2019-04-22T08:04:53.771Z,8.30
2019-04-22T08:09:53.982Z,8.17
2019-04-22T08:14:53.631Z,8.13
2019-04-22T08:20:08.923Z,10.37
2019-04-22T08:25:19.573Z,7.23
2019-04-22T08:30:34.897Z,7.97
2019-04-22T08:35:52.444Z,7.80
2019-04-22T08:41:24.822Z,8.27
2019-04-22T08:51:36.265Z,8.23
2019-04-22T08:56:45.841Z,8.20
2019-04-22T09:01:57.348Z,8.27
2019-04-22T09:12:32.768Z,6.13
2019-04-22T09:17:47.910Z,5.17
2019-04-22T09:22:42.623Z,5.97
2019-04-22T09:27:51.160Z,7.27
2019-04-22T09:33:02.908Z,9.30
2019-04-22T09:44:01.154Z,6.03
2019-04-22T09:49:12.336Z,7.77
2019-04-22T09:54:34.434Z,8.50
2019-04-22T09:59:58.632Z,9.63
2019-04-22T10:05:23.821Z,10.13
2019-04-22T10:10:49.013Z,11.13
2019-04-22T10:15:55.868Z,11.13
2019-04-22T10:21:12.753Z,9.60
2019-04-22T10:26:21.864Z,12.30
2019-04-22T10:36:19.498Z,13.13
2019-04-22T10:41:30.669Z,9.57
2019-04-22T10:46:40.209Z,8.53
2019-04-22T10:51:50.425Z,9.93
2019-04-22T10:57:03.339Z,7.77
2019-04-22T11:02:11.780Z,11.67
2019-04-22T11:07:25.233Z,10.70
2019-04-22T11:12:32.282Z,10.00
2019-04-22T11:17:39.687Z,11.57
2019-04-22T11:22:48.920Z,17.77
2019-04-22T11:28:00.006Z,7.70
2019-04-22T11:33:08.662Z,9.43
2019-04-22T11:38:17.348Z,7.03
2019-04-22T11:43:26.205Z,6.87
2019-04-22T11:48:35.957Z,10.70
2019-04-22T11:53:44.903Z,6.23
2019-04-22T11:58:55.161Z,10.77
2019-04-22T12:04:03.959Z,11.50
2019-04-22T12:09:15.298Z,10.57
2019-04-22T12:14:24.056Z,10.93
2019-04-22T12:19:35.238Z,9.37
2019-04-22T12:24:44.229Z,5.37
2019-04-22T12:29:53.234Z,7.23
2019-04-22T12:35:01.861Z,7.07
2019-04-22T12:40:13.069Z,7.10
2019-04-22T12:45:22.588Z,7.20
2019-04-22T12:50:34.860Z,6.90
2019-04-22T12:55:42.036Z,16.17
2019-04-22T13:00:51.397Z,10.07
2019-04-22T13:05:59.584Z,5.90
2019-04-22T13:11:12.335Z,16.30
2019-04-22T13:16:17.596Z,10.90
2019-04-22T13:21:26.956Z,7.10
2019-04-22T13:26:35.924Z,3.90
2019-04-22T13:31:44.745Z,5.63
2019-04-22T13:36:52.891Z,11.57
2019-04-22T13:42:05.627Z,5.57
2019-04-22T13:47:29.788Z,7.20
2019-04-22T13:53:00.662Z,11.80
2019-04-22T13:57:47.456Z,7.73
2019-04-22T14:02:50.665Z,6.60
2019-04-22T14:08:00.834Z,7.07
2019-04-22T14:13:07.882Z,14.57
2019-04-22T14:18:16.921Z,4.07
2019-04-22T14:23:26.688Z,6.60
2019-04-22T14:28:35.739Z,5.83
2019-04-22T14:33:46.547Z,6.93
2019-04-22T14:38:54.382Z,26.47
2019-04-22T14:45:05.154Z,14.93
2019-04-22T14:49:37.141Z,14.90
2019-04-22T14:54:34.796Z,12.97
2019-04-22T14:59:32.614Z,7.70
2019-04-22T15:04:42.885Z,9.37
2019-04-22T15:09:52.276Z,5.53
2019-04-22T15:15:03.869Z,10.97
2019-04-22T15:20:21.425Z,11.00
2019-04-22T15:25:30.605Z,7.27
2019-04-22T15:30:39.436Z,6.97
2019-04-22T15:35:49.360Z,9.10
2019-04-22T15:40:58.654Z,8.23
2019-04-22T15:46:07.664Z,6.83
2019-04-22T15:51:16.514Z,8.13
2019-04-22T15:56:26.380Z,6.40
2019-04-22T16:01:37.845Z,7.43
2019-04-22T16:06:45.075Z,4.73
2019-04-22T16:12:09.997Z,4.13
2019-04-22T16:17:08.722Z,3.97
2019-04-22T16:22:19.740Z,3.93
2019-04-22T16:27:30.183Z,7.50
2019-04-22T16:32:39.169Z,5.50
2019-04-22T16:37:48.611Z,5.43
2019-04-22T16:42:59.333Z,8.03
2019-04-22T16:48:07.495Z,6.77
2019-04-22T16:53:16.857Z,9.70
2019-04-22T16:58:25.269Z,10.27
2019-04-22T17:03:52.372Z,5.10
2019-04-22T17:09:02.634Z,8.07
2019-04-22T17:14:16.725Z,9.37
2019-04-22T17:19:23.671Z,7.33
2019-04-22T17:24:37.405Z,8.23
2019-04-22T17:29:46.365Z,6.73
2019-04-22T17:35:00.178Z,15.20
2019-04-22T17:40:30.082Z,9.13
2019-04-22T17:46:06.818Z,7.80
2019-04-22T17:51:24.053Z,7.03
2019-04-22T17:56:30.784Z,9.40
2019-04-22T18:01:40.292Z,9.80
2019-04-22T18:07:15.801Z,11.57
2019-04-22T18:12:25.825Z,8.47
2019-04-22T18:17:37.317Z,12.60
2019-04-22T18:22:25.090Z,10.23
2019-04-22T18:32:55.549Z,10.87
2019-04-22T18:38:18.204Z,5.20
2019-04-22T18:43:21.945Z,5.37
2019-04-22T18:48:32.136Z,5.07
2019-04-22T18:54:01.839Z,6.10
2019-04-22T18:58:59.538Z,5.27
2019-04-22T19:04:08.976Z,7.90
2019-04-22T19:09:34.985Z,5.77
2019-04-22T19:20:03.138Z,8.37
2019-04-22T19:24:59.927Z,4.73
2019-04-22T19:30:16.343Z,10.00
2019-04-22T19:35:18.514Z,7.27
2019-04-22T19:40:55.543Z,7.40
2019-04-22T19:45:55.835Z,8.17
2019-04-22T19:51:13.993Z,7.73
2019-04-22T19:56:08.317Z,8.80
2019-04-22T20:01:25.444Z,9.13
2019-04-22T20:06:36.759Z,7.73
2019-04-22T20:11:45.036Z,7.80
2019-04-22T20:16:49.136Z,11.87
2019-04-22T20:22:03.045Z,9.30
2019-04-22T20:32:23.413Z,12.30
2019-04-22T20:37:39.884Z,9.53
2019-04-22T20:42:50.143Z,8.20
2019-04-22T20:47:46.554Z,11.00
2019-04-22T20:53:06.833Z,8.67
2019-04-22T20:58:12.204Z,11.57
2019-04-22T21:03:13.323Z,11.93
2019-04-22T21:08:36.911Z,13.37
2019-04-22T21:13:46.632Z,11.57
2019-04-22T21:18:47.441Z,13.67
2019-04-22T21:23:54.207Z,10.77
2019-04-22T21:29:07.172Z,13.50
2019-04-22T21:34:19.597Z,10.70
2019-04-22T21:39:26.305Z,14.87
2019-04-22T21:44:42.601Z,21.80
2019-04-22T21:50:07.872Z,19.13
2019-04-22T21:55:06.541Z,18.73
2019-04-22T22:00:17.021Z,17.80
2019-04-22T22:05:12.571Z,17.57
2019-04-22T22:10:37.049Z,18.57
2019-04-22T22:15:52.384Z,20.37
2019-04-22T22:21:19.378Z,14.77
2019-04-22T22:26:12.294Z,17.53
2019-04-22T22:31:32.709Z,13.13
2019-04-22T22:36:29.581Z,12.83
2019-04-22T22:41:25.865Z,13.10
2019-04-22T23:08:54.059Z,20.87
2019-04-22T23:13:56.993Z,14.30
2019-04-22T23:19:02.732Z,12.33
2019-04-22T23:24:29.958Z,10.00
2019-04-22T23:29:44.775Z,12.13
2019-04-22T23:35:01.756Z,11.83
2019-04-22T23:40:18.834Z,10.37
2019-04-22T23:45:21.169Z,13.47
2019-04-22T23:50:34.024Z,17.70
2019-04-22T23:55:45.848Z,10.47
